createdAt,value
2023-02-15T00:01:54.339Z,2.66
2023-02-15T00:04:22.981Z,2.58
2023-02-15T00:06:50.564Z,2.55
2023-02-15T00:09:17.544Z,2.45
2023-02-15T00:11:46.196Z,2.46
2023-02-15T00:14:20.352Z,2.45
2023-02-15T00:16:48.459Z,2.29
2023-02-15T00:19:17.191Z,2.26
2023-02-15T00:21:44.848Z,2.26
2023-02-15T00:24:13.982Z,2.20
2023-02-15T00:26:42.267Z,2.12
2023-02-15T00:29:10.747Z,2.02
2023-02-15T00:31:38.147Z,2.08
2023-02-15T00:34:14.265Z,2.06
2023-02-15T00:36:41.724Z,2.03
2023-02-15T00:39:08.777Z,1.98
2023-02-15T00:41:36.539Z,1.97
2023-02-15T00:44:04.809Z,1.90
2023-02-15T00:46:34.627Z,1.86
2023-02-15T00:49:01.629Z,1.84
2023-02-15T00:51:29.025Z,1.83
2023-02-15T00:53:56.520Z,1.85
2023-02-15T00:56:23.585Z,1.76
2023-02-15T00:58:50.429Z,1.74
2023-02-15T01:01:20.399Z,1.76
2023-02-15T01:03:47.888Z,1.68
2023-02-15T01:06:16.488Z,1.65
2023-02-15T01:08:45.060Z,1.63
2023-02-15T01:11:23.033Z,1.64
2023-02-15T01:13:56.673Z,1.59
2023-02-15T01:16:25.796Z,1.55
2023-02-15T01:18:52.819Z,1.49
2023-02-15T01:21:22.873Z,1.53
2023-02-15T01:23:50.273Z,1.44
2023-02-15T01:26:17.812Z,1.36
2023-02-15T01:28:45.348Z,1.29
2023-02-15T01:31:16.061Z,1.19
2023-02-15T01:33:46.523Z,1.20
2023-02-15T01:36:13.766Z,1.12
2023-02-15T01:38:41.152Z,1.05
2023-02-15T01:41:29.852Z,1.07
2023-02-15T01:44:02.767Z,1.00
2023-02-15T01:46:46.562Z,0.94
2023-02-15T01:49:17.746Z,1.06
2023-02-15T01:51:48.480Z,1.04
2023-02-15T01:54:45.925Z,0.98
2023-02-15T01:57:17.977Z,0.93
2023-02-15T01:59:49.713Z,0.91
2023-02-15T02:02:21.822Z,0.84
2023-02-15T02:04:50.839Z,0.87
2023-02-15T02:07:21.794Z,0.71
2023-02-15T02:09:49.786Z,0.61
2023-02-15T02:12:19.120Z,0.60
2023-02-15T02:14:48.236Z,0.61
2023-02-15T02:18:08.300Z,0.57
2023-02-15T02:20:54.046Z,0.46
2023-02-15T02:23:20.834Z,0.41
2023-02-15T02:25:47.524Z,0.38
2023-02-15T02:28:39.488Z,0.35
2023-02-15T02:31:43.250Z,0.32
2023-02-15T02:34:28.670Z,0.31
2023-02-15T02:37:25.725Z,0.23
2023-02-15T02:40:01.599Z,0.20
2023-02-15T02:42:41.203Z,0.23
2023-02-15T02:45:33.372Z,0.17
2023-02-15T02:48:07.411Z,0.16
2023-02-15T02:50:34.582Z,0.09
2023-02-15T02:53:01.484Z,0.12
2023-02-15T02:55:53.251Z,0.06
2023-02-15T02:58:46.062Z,0.04
2023-02-15T03:01:23.592Z,0.03
2023-02-15T03:03:56.844Z,-0.02
2023-02-15T03:06:36.953Z,-0.04
2023-02-15T03:09:42.778Z,-0.02
2023-02-15T03:12:15.808Z,-0.05
2023-02-15T03:14:52.906Z,-0.13
2023-02-15T03:17:27.513Z,-0.19
2023-02-15T03:19:58.857Z,-0.13
2023-02-15T03:22:39.351Z,-0.12
2023-02-15T03:25:26.416Z,-0.14
2023-02-15T03:28:02.328Z,-0.80
2023-02-15T03:30:31.333Z,-0.22
2023-02-15T03:33:01.106Z,-0.29
2023-02-15T03:35:46.821Z,-0.34
2023-02-15T03:38:18.878Z,-0.29
2023-02-15T03:41:06.829Z,-0.36
2023-02-15T03:43:54.409Z,-0.44
2023-02-15T03:46:45.967Z,-0.43
2023-02-15T03:49:25.748Z,-0.47
2023-02-15T03:51:56.641Z,-0.51
2023-02-15T03:54:46.048Z,-0.56
2023-02-15T03:57:34.282Z,-0.52
2023-02-15T04:00:22.680Z,-0.46
2023-02-15T04:03:10.267Z,-0.50
2023-02-15T04:05:37.571Z,-0.56
2023-02-15T04:08:04.981Z,-0.56
2023-02-15T04:10:50.264Z,-0.59
2023-02-15T04:13:17.235Z,-0.58
2023-02-15T04:16:03.103Z,-0.61
2023-02-15T04:19:14.912Z,-0.55
2023-02-15T04:22:00.621Z,-0.71
2023-02-15T04:24:46.092Z,-0.82
2023-02-15T04:27:13.152Z,-0.80
2023-02-15T04:29:40.148Z,-0.83
2023-02-15T04:32:07.794Z,-0.83
2023-02-15T04:34:34.909Z,-0.90
2023-02-15T04:37:01.860Z,-0.87
2023-02-15T04:39:29.029Z,-0.98
2023-02-15T04:41:55.869Z,-0.87
2023-02-15T04:44:22.764Z,-0.91
2023-02-15T04:46:49.706Z,-0.81
2023-02-15T04:49:16.970Z,-0.97
2023-02-15T04:51:43.808Z,-0.92
2023-02-15T04:54:10.752Z,-0.99
2023-02-15T04:56:38.926Z,-0.94
2023-02-15T04:59:06.123Z,-1.04
2023-02-15T05:01:32.958Z,-1.00
2023-02-15T05:04:00.561Z,-1.01
2023-02-15T05:06:27.339Z,-1.04
2023-02-15T05:08:54.462Z,-0.97
2023-02-15T05:11:21.441Z,-1.01
2023-02-15T05:13:48.339Z,-1.05
2023-02-15T05:16:15.697Z,-1.07
2023-02-15T05:18:42.764Z,-1.00
2023-02-15T05:21:09.846Z,-0.99
2023-02-15T05:23:37.341Z,-1.05
2023-02-15T05:26:23.115Z,-1.01
2023-02-15T05:28:50.249Z,-1.07
2023-02-15T05:31:20.840Z,-1.09
2023-02-15T05:33:49.016Z,-1.03
2023-02-15T05:36:15.885Z,-1.07
2023-02-15T05:38:42.994Z,-1.05
2023-02-15T05:41:11.614Z,-1.07
2023-02-15T05:43:39.690Z,-1.11
2023-02-15T05:46:07.615Z,-1.09
2023-02-15T05:48:35.732Z,-1.06
2023-02-15T05:51:08.562Z,-1.04
2023-02-15T05:53:38.389Z,-1.02
2023-02-15T05:56:06.859Z,-1.06
2023-02-15T05:58:40.288Z,-0.96
2023-02-15T06:01:12.125Z,-0.91
2023-02-15T06:03:39.781Z,-0.70
2023-02-15T06:06:07.845Z,-0.61
2023-02-15T06:08:36.298Z,-0.45
2023-02-15T06:11:03.705Z,-0.47
2023-02-15T06:13:31.621Z,-0.48
2023-02-15T06:15:58.619Z,-0.46
2023-02-15T06:18:26.884Z,-0.44
2023-02-15T06:20:54.464Z,-0.34
2023-02-15T06:23:21.889Z,-0.22
2023-02-15T06:25:48.866Z,-0.16
2023-02-15T06:28:16.039Z,-0.09
2023-02-15T06:30:44.239Z,-0.03
2023-02-15T06:33:11.566Z,0.18
2023-02-15T06:35:38.490Z,0.31
2023-02-15T06:38:05.527Z,0.50
2023-02-15T06:40:32.281Z,0.62
2023-02-15T06:42:59.281Z,0.67
2023-02-15T06:45:26.299Z,0.84
2023-02-15T06:47:53.320Z,1.01
2023-02-15T06:50:20.253Z,1.17
2023-02-15T06:52:47.581Z,1.20
2023-02-15T06:55:16.772Z,1.33
2023-02-15T06:57:43.568Z,1.45
2023-02-15T07:00:10.930Z,1.55
2023-02-15T07:02:38.119Z,1.79
2023-02-15T07:05:06.477Z,1.96
2023-02-15T07:07:33.843Z,2.05
2023-02-15T07:10:00.673Z,2.21
2023-02-15T07:12:46.935Z,2.37
2023-02-15T07:15:21.745Z,2.49
2023-02-15T07:17:49.571Z,2.67
2023-02-15T07:20:22.594Z,2.79
2023-02-15T07:22:50.524Z,3.05
2023-02-15T07:25:17.834Z,3.17
2023-02-15T07:27:46.266Z,3.27
2023-02-15T07:30:16.467Z,3.41
2023-02-15T07:33:05.282Z,3.58
2023-02-15T07:35:33.346Z,3.58
2023-02-15T07:38:00.510Z,3.70
2023-02-15T07:40:27.439Z,3.86
2023-02-15T07:42:55.957Z,3.93
2023-02-15T07:45:23.450Z,3.86
2023-02-15T07:47:50.360Z,3.97
2023-02-15T07:50:17.646Z,4.08
2023-02-15T07:52:45.808Z,4.01
2023-02-15T07:55:14.098Z,4.02
2023-02-15T07:57:47.793Z,4.15
2023-02-15T08:00:16.874Z,4.25
2023-02-15T08:03:11.061Z,4.29
2023-02-15T08:05:38.929Z,4.43
2023-02-15T08:08:06.711Z,4.39
2023-02-15T08:10:52.918Z,4.39
2023-02-15T08:13:19.934Z,4.42
2023-02-15T08:15:51.284Z,4.54
2023-02-15T08:18:18.364Z,4.63
2023-02-15T08:20:50.974Z,4.78
2023-02-15T08:23:17.886Z,4.95
2023-02-15T08:25:44.923Z,5.02
2023-02-15T08:28:12.263Z,5.08
2023-02-15T08:30:39.058Z,5.01
2023-02-15T08:33:05.980Z,5.00
2023-02-15T08:35:32.789Z,5.15
2023-02-15T08:37:59.671Z,5.23
2023-02-15T08:40:26.528Z,5.30
2023-02-15T08:42:53.511Z,5.44
2023-02-15T08:45:20.370Z,5.11
2023-02-15T08:47:47.563Z,5.27
2023-02-15T08:50:14.595Z,5.34
2023-02-15T08:52:42.058Z,5.36
2023-02-15T08:55:08.992Z,5.55
2023-02-15T08:57:36.727Z,5.60
2023-02-15T09:00:06.196Z,5.57
2023-02-15T09:02:33.669Z,5.39
2023-02-15T09:05:00.598Z,5.41
2023-02-15T09:07:27.656Z,5.42
2023-02-15T09:09:54.409Z,5.74
2023-02-15T09:12:21.419Z,5.72
2023-02-15T09:14:48.301Z,5.73
2023-02-15T09:17:16.157Z,5.61
2023-02-15T09:19:43.021Z,5.65
2023-02-15T09:22:10.722Z,5.89
2023-02-15T09:24:37.618Z,5.89
2023-02-15T09:27:04.549Z,6.07
2023-02-15T09:29:31.447Z,6.16
2023-02-15T09:31:58.318Z,6.29
2023-02-15T09:34:25.349Z,6.30
2023-02-15T09:36:52.989Z,6.45
2023-02-15T09:39:21.779Z,6.72
2023-02-15T09:42:08.961Z,6.64
2023-02-15T09:45:18.602Z,6.56
2023-02-15T09:48:18.465Z,6.56
2023-02-15T09:51:11.421Z,6.72
2023-02-15T09:53:53.782Z,6.73
2023-02-15T09:56:26.601Z,6.85
2023-02-15T09:59:21.006Z,6.86
2023-02-15T10:02:25.906Z,6.90
2023-02-15T10:05:16.426Z,6.81
2023-02-15T10:08:09.784Z,6.94
2023-02-15T10:10:42.528Z,7.08
2023-02-15T10:13:31.892Z,7.03
2023-02-15T10:16:10.966Z,7.14
2023-02-15T10:18:40.672Z,7.29
2023-02-15T10:21:11.256Z,7.39
2023-02-15T10:24:02.762Z,7.35
2023-02-15T10:26:35.100Z,7.49
2023-02-15T10:29:18.397Z,7.52
2023-02-15T10:31:59.035Z,7.60
2023-02-15T10:34:40.407Z,7.49
2023-02-15T10:37:23.403Z,7.55
2023-02-15T10:39:59.473Z,7.54
2023-02-15T10:43:00.777Z,7.54
2023-02-15T10:45:47.036Z,7.62
2023-02-15T10:48:20.206Z,7.69
2023-02-15T10:50:58.166Z,7.77
2023-02-15T10:53:45.211Z,7.75
2023-02-15T10:56:30.572Z,7.63
2023-02-15T10:59:16.482Z,7.38
2023-02-15T11:01:43.690Z,7.83
2023-02-15T11:04:38.476Z,7.59
2023-02-15T11:07:28.037Z,7.68
2023-02-15T11:10:18.380Z,7.62
2023-02-15T11:12:48.334Z,7.53
2023-02-15T11:15:29.187Z,7.73
2023-02-15T11:18:20.725Z,7.84
2023-02-15T11:20:57.338Z,7.79
2023-02-15T11:23:27.802Z,7.73
2023-02-15T11:26:01.365Z,7.74
2023-02-15T11:28:37.887Z,7.87
2023-02-15T11:31:17.009Z,7.75
2023-02-15T11:33:48.838Z,7.66
2023-02-15T11:36:23.950Z,7.73
2023-02-15T11:38:59.110Z,7.80
2023-02-15T11:41:33.154Z,7.91
2023-02-15T11:44:09.606Z,8.19
2023-02-15T11:46:38.333Z,8.27
2023-02-15T11:49:35.155Z,7.98
2023-02-15T11:52:06.082Z,7.88
2023-02-15T11:54:37.077Z,7.95
2023-02-15T11:57:17.135Z,8.15
2023-02-15T11:59:51.790Z,8.28
2023-02-15T12:02:23.549Z,8.27
2023-02-15T12:05:08.200Z,8.20
2023-02-15T12:07:45.148Z,8.33
2023-02-15T12:10:35.060Z,8.49
2023-02-15T12:13:18.902Z,8.64
2023-02-15T12:15:56.184Z,8.57
2023-02-15T12:18:42.356Z,8.70
2023-02-15T12:21:31.661Z,8.76
2023-02-15T12:24:05.409Z,8.95
2023-02-15T12:26:36.198Z,9.08
2023-02-15T12:29:16.338Z,9.14
2023-02-15T12:31:47.647Z,9.20
2023-02-15T12:34:27.647Z,9.29
2023-02-15T12:37:00.590Z,9.19
2023-02-15T12:39:32.392Z,9.02
2023-02-15T12:42:01.660Z,8.73
2023-02-15T12:44:38.121Z,8.73
2023-02-15T12:47:05.126Z,8.65
2023-02-15T12:49:38.817Z,8.52
2023-02-15T12:52:24.063Z,8.68
2023-02-15T12:54:51.927Z,8.58
2023-02-15T12:57:35.375Z,8.62
2023-02-15T13:00:06.998Z,8.52
2023-02-15T13:02:48.794Z,8.74
2023-02-15T13:05:44.076Z,8.68
2023-02-15T13:08:20.363Z,8.81
2023-02-15T13:11:10.867Z,8.89
2023-02-15T13:14:19.078Z,8.75
2023-02-15T13:16:48.744Z,8.73
2023-02-15T13:19:27.501Z,8.74
2023-02-15T13:21:57.882Z,8.80
2023-02-15T13:24:33.476Z,8.91
2023-02-15T13:27:14.500Z,8.95
2023-02-15T13:29:45.858Z,8.97
2023-02-15T13:32:34.908Z,8.77
2023-02-15T13:35:06.125Z,8.59
2023-02-15T13:37:43.632Z,8.90
2023-02-15T13:40:20.878Z,8.67
2023-02-15T13:43:01.041Z,8.76
2023-02-15T13:45:40.178Z,8.90
2023-02-15T13:48:45.017Z,8.83
2023-02-15T13:51:45.666Z,8.56
2023-02-15T13:54:43.363Z,8.72
2023-02-15T13:57:28.571Z,8.69
2023-02-15T14:00:29.517Z,8.73
2023-02-15T14:03:40.383Z,8.62
2023-02-15T14:06:26.101Z,8.48
2023-02-15T14:09:42.408Z,8.46
2023-02-15T14:12:24.840Z,8.47
2023-02-15T14:15:09.822Z,8.50
2023-02-15T14:18:38.246Z,8.58
2023-02-15T14:21:27.804Z,8.41
2023-02-15T14:24:00.726Z,8.37
2023-02-15T14:26:47.424Z,8.42
2023-02-15T14:30:38.107Z,8.32
2023-02-15T14:33:32.628Z,8.28
2023-02-15T14:36:01.897Z,8.16
2023-02-15T14:39:31.298Z,8.25
2023-02-15T14:42:21.731Z,8.12
2023-02-15T14:45:02.524Z,8.02
2023-02-15T14:47:37.543Z,8.02
2023-02-15T14:50:34.755Z,8.03
2023-02-15T14:53:23.978Z,7.90
2023-02-15T14:56:08.563Z,7.70
2023-02-15T14:58:36.194Z,7.94
2023-02-15T15:01:11.478Z,7.88
2023-02-15T15:03:57.403Z,7.77
2023-02-15T15:06:31.517Z,7.82
2023-02-15T15:09:23.577Z,7.75
2023-02-15T15:11:52.898Z,7.68
2023-02-15T15:14:35.179Z,7.64
2023-02-15T15:17:05.089Z,7.50
2023-02-15T15:19:52.240Z,7.43
2023-02-15T15:22:30.618Z,7.26
2023-02-15T15:25:05.393Z,7.36
2023-02-15T15:27:55.707Z,7.32
2023-02-15T15:31:00.638Z,7.23
2023-02-15T15:34:11.414Z,7.15
2023-02-15T15:37:09.202Z,7.14
2023-02-15T15:39:54.628Z,7.11
2023-02-15T15:42:39.411Z,7.00
2023-02-15T15:45:27.471Z,7.06
2023-02-15T15:48:14.596Z,6.94
2023-02-15T15:50:42.786Z,6.90
2023-02-15T15:53:22.418Z,6.78
2023-02-15T15:55:55.185Z,6.74
2023-02-15T15:58:23.863Z,6.71
2023-02-15T16:01:00.506Z,6.64
2023-02-15T16:03:29.306Z,6.59
2023-02-15T16:06:01.409Z,6.49
2023-02-15T16:08:34.983Z,6.37
2023-02-15T16:11:12.055Z,6.19
2023-02-15T16:13:42.338Z,6.17
2023-02-15T16:16:09.696Z,6.11
2023-02-15T16:18:43.366Z,6.11
2023-02-15T16:21:35.687Z,5.94
2023-02-15T16:24:18.633Z,5.99
2023-02-15T16:27:04.707Z,5.83
2023-02-15T16:29:34.204Z,5.83
2023-02-15T16:32:07.740Z,5.60
2023-02-15T16:34:34.802Z,5.59
2023-02-15T16:37:19.406Z,5.52
2023-02-15T16:39:49.131Z,5.47
2023-02-15T16:42:17.967Z,5.36
2023-02-15T16:44:53.379Z,5.27
2023-02-15T16:47:28.221Z,5.19
2023-02-15T16:50:00.732Z,5.15
2023-02-15T16:52:29.127Z,5.13
2023-02-15T16:54:59.261Z,5.04
2023-02-15T16:57:34.041Z,4.93
2023-02-15T17:00:18.007Z,4.81
2023-02-15T17:02:56.917Z,4.77
2023-02-15T17:05:24.308Z,4.63
2023-02-15T17:08:05.946Z,4.55
2023-02-15T17:10:40.222Z,4.54
2023-02-15T17:13:18.000Z,4.50
2023-02-15T17:16:06.113Z,4.36
2023-02-15T17:18:44.711Z,4.31
2023-02-15T17:21:17.789Z,4.24
2023-02-15T17:23:48.368Z,4.21
2023-02-15T17:26:27.857Z,4.12
2023-02-15T17:29:11.976Z,4.02
2023-02-15T17:31:39.505Z,3.87
2023-02-15T17:34:06.859Z,3.76
2023-02-15T17:36:33.797Z,3.70
2023-02-15T17:39:06.672Z,3.71
2023-02-15T17:41:35.852Z,3.57
2023-02-15T17:44:04.000Z,3.53
2023-02-15T17:46:37.238Z,3.44
2023-02-15T17:49:05.390Z,3.37
2023-02-15T17:51:33.368Z,3.33
2023-02-15T17:54:19.135Z,3.19
2023-02-15T17:56:46.298Z,3.13
2023-02-15T17:59:14.356Z,3.06
2023-02-15T18:02:07.204Z,2.96
2023-02-15T18:04:56.224Z,2.92
2023-02-15T18:07:42.459Z,2.87
2023-02-15T18:10:37.248Z,2.81
2023-02-15T18:13:04.753Z,2.72
2023-02-15T18:15:31.930Z,2.68
2023-02-15T18:18:03.264Z,2.61
2023-02-15T18:20:37.268Z,2.57
2023-02-15T18:23:04.278Z,2.49
2023-02-15T18:25:31.103Z,2.37
2023-02-15T18:27:57.954Z,2.37
2023-02-15T18:30:27.738Z,2.40
2023-02-15T18:32:57.328Z,2.40
2023-02-15T18:35:28.626Z,2.40
2023-02-15T18:37:55.444Z,2.40
2023-02-15T18:40:27.423Z,2.37
2023-02-15T18:42:57.030Z,2.31
2023-02-15T18:45:32.985Z,2.29
2023-02-15T18:48:00.314Z,2.28
2023-02-15T18:50:31.291Z,2.19
2023-02-15T18:52:58.883Z,2.14
2023-02-15T18:55:28.088Z,2.11
2023-02-15T18:57:57.417Z,2.07
2023-02-15T19:00:28.886Z,2.03
2023-02-15T19:02:59.452Z,1.96
2023-02-15T19:05:28.484Z,1.90
2023-02-15T19:07:57.380Z,1.84
2023-02-15T19:10:27.203Z,1.87
2023-02-15T19:12:55.947Z,1.84
2023-02-15T19:15:28.492Z,1.78
2023-02-15T19:17:55.563Z,1.70
2023-02-15T19:20:29.891Z,1.59
2023-02-15T19:22:58.374Z,1.50
2023-02-15T19:25:31.545Z,1.54
2023-02-15T19:27:58.946Z,1.62
2023-02-15T19:30:32.335Z,1.58
2023-02-15T19:33:00.067Z,1.60
2023-02-15T19:35:31.829Z,1.53
2023-02-15T19:38:06.265Z,1.27
2023-02-15T19:40:35.875Z,1.40
2023-02-15T19:43:03.965Z,1.35
2023-02-15T19:45:33.001Z,1.27
2023-02-15T19:48:02.981Z,1.31
2023-02-15T19:50:33.448Z,1.26
2023-02-15T19:53:02.866Z,1.17
2023-02-15T19:55:37.996Z,1.20
2023-02-15T19:58:12.148Z,0.98
2023-02-15T20:00:39.922Z,1.06
2023-02-15T20:03:06.725Z,0.90
2023-02-15T20:05:38.320Z,0.98
2023-02-15T20:08:10.176Z,0.89
2023-02-15T20:10:37.178Z,0.90
2023-02-15T20:13:04.081Z,0.92
2023-02-15T20:15:34.547Z,0.94
2023-02-15T20:18:04.455Z,0.91
2023-02-15T20:20:51.772Z,0.90
2023-02-15T20:23:35.766Z,0.84
2023-02-15T20:26:14.038Z,0.85
2023-02-15T20:28:41.141Z,0.88
2023-02-15T20:31:14.834Z,0.77
2023-02-15T20:33:42.120Z,0.83
2023-02-15T20:36:17.141Z,0.86
2023-02-15T20:38:44.764Z,0.80
2023-02-15T20:41:37.208Z,0.80
2023-02-15T20:44:35.842Z,0.74
2023-02-15T20:47:02.883Z,0.72
2023-02-15T20:49:29.689Z,0.68
2023-02-15T20:51:57.331Z,0.70
2023-02-15T20:54:27.235Z,0.74
2023-02-15T20:56:57.318Z,0.55
2023-02-15T20:59:27.496Z,0.71
2023-02-15T21:01:59.317Z,0.66
2023-02-15T21:04:32.363Z,0.72
2023-02-15T21:07:00.726Z,0.59
2023-02-15T21:09:28.264Z,0.71
2023-02-15T21:11:58.274Z,0.57
2023-02-15T21:14:27.294Z,0.53
2023-02-15T21:16:54.204Z,0.54
2023-02-15T21:19:24.523Z,0.53
2023-02-15T21:21:53.338Z,0.52
2023-02-15T21:24:26.925Z,0.44
2023-02-15T21:26:55.114Z,0.55
2023-02-15T21:29:28.044Z,0.55
2023-02-15T21:31:55.305Z,0.48
2023-02-15T21:34:22.116Z,0.46
2023-02-15T21:36:50.826Z,0.42
2023-02-15T21:39:29.533Z,0.29
2023-02-15T21:42:15.110Z,0.27
2023-02-15T21:45:00.909Z,0.26
2023-02-15T21:47:48.720Z,0.27
2023-02-15T21:50:40.031Z,0.20
2023-02-15T21:53:10.735Z,0.15
2023-02-15T21:55:37.724Z,0.14
2023-02-15T21:58:05.989Z,0.08
2023-02-15T22:00:34.109Z,-0.04
2023-02-15T22:03:01.999Z,0.01
2023-02-15T22:05:33.233Z,0.12
2023-02-15T22:08:00.818Z,0.10
2023-02-15T22:10:31.619Z,0.08
2023-02-15T22:13:02.416Z,0.09
2023-02-15T22:15:37.204Z,0.02
2023-02-15T22:18:05.572Z,0.01
2023-02-15T22:20:32.528Z,0.05
2023-02-15T22:22:59.518Z,-0.14
2023-02-15T22:25:27.415Z,-0.08
2023-02-15T22:27:55.009Z,-0.04
2023-02-15T22:30:29.577Z,-0.09
2023-02-15T22:32:57.644Z,-0.05
2023-02-15T22:35:33.056Z,-0.09
2023-02-15T22:38:00.447Z,-0.01
2023-02-15T22:40:33.527Z,0.12
2023-02-15T22:43:03.095Z,0.00
2023-02-15T22:45:31.478Z,-0.12
2023-02-15T22:48:00.816Z,-0.13
2023-02-15T22:50:32.571Z,-0.07
2023-02-15T22:53:01.356Z,-0.12
2023-02-15T22:55:33.799Z,-0.17
2023-02-15T22:58:01.150Z,-0.20
2023-02-15T23:00:32.311Z,-0.25
2023-02-15T23:02:59.093Z,-0.21
2023-02-15T23:05:28.940Z,-0.24
2023-02-15T23:07:56.227Z,-0.20
2023-02-15T23:10:26.112Z,-0.24
2023-02-15T23:13:14.680Z,-0.26
2023-02-15T23:15:43.538Z,-0.37
2023-02-15T23:18:20.577Z,-0.41
2023-02-15T23:20:52.357Z,-0.44
2023-02-15T23:23:24.927Z,-0.48
2023-02-15T23:25:52.015Z,-0.62
2023-02-15T23:28:22.065Z,-0.52
2023-02-15T23:30:49.693Z,-0.50
2023-02-15T23:33:19.237Z,-0.76
2023-02-15T23:35:46.378Z,-0.76
2023-02-15T23:38:28.731Z,-0.67
2023-02-15T23:41:19.831Z,-0.61
2023-02-15T23:44:04.791Z,-0.61
2023-02-15T23:46:46.899Z,-0.63
2023-02-15T23:49:16.601Z,-0.71
2023-02-15T23:51:52.085Z,-0.88
2023-02-15T23:54:21.631Z,-0.88
2023-02-15T23:56:55.177Z,-0.92
2023-02-15T23:59:25.395Z,-0.93
